createdAt,value
2023-03-13T00:01:48.092Z,100.00
2023-03-13T00:04:17.462Z,100.00
2023-03-13T00:06:46.887Z,100.00
2023-03-13T00:09:18.790Z,100.00
2023-03-13T00:11:48.572Z,100.00
2023-03-13T00:14:20.446Z,100.00
2023-03-13T00:16:49.722Z,100.00
2023-03-13T00:19:19.188Z,100.00
2023-03-13T00:21:48.507Z,100.00
2023-03-13T00:24:17.840Z,100.00
2023-03-13T00:26:47.126Z,100.00
2023-03-13T00:29:16.370Z,100.00
2023-03-13T00:31:48.210Z,100.00
2023-03-13T00:34:17.482Z,100.00
2023-03-13T00:36:46.696Z,100.00
2023-03-13T00:39:15.916Z,100.00
2023-03-13T00:41:45.295Z,100.00
2023-03-13T00:44:14.584Z,100.00
2023-03-13T00:46:43.827Z,100.00
2023-03-13T00:49:15.750Z,100.00
2023-03-13T00:51:44.995Z,100.00
2023-03-13T00:54:14.265Z,100.00
2023-03-13T00:56:43.525Z,100.00
2023-03-13T00:59:12.899Z,100.00
2023-03-13T01:01:42.154Z,100.00
2023-03-13T01:04:15.246Z,100.00
2023-03-13T01:06:45.351Z,100.00
2023-03-13T01:09:17.784Z,100.00
2023-03-13T01:11:48.198Z,100.00
2023-03-13T01:14:20.126Z,100.00
2023-03-13T01:16:49.773Z,100.00
2023-03-13T01:19:21.775Z,100.00
2023-03-13T01:21:51.179Z,100.00
2023-03-13T01:24:20.473Z,100.00
2023-03-13T01:26:49.718Z,100.00
2023-03-13T01:29:21.288Z,100.00
2023-03-13T01:31:50.550Z,100.00
2023-03-13T01:34:22.493Z,100.00
2023-03-13T01:36:52.399Z,100.00
2023-03-13T01:39:21.724Z,100.00
2023-03-13T01:41:51.038Z,100.00
2023-03-13T01:44:25.546Z,100.00
2023-03-13T01:46:55.313Z,100.00
2023-03-13T01:49:33.400Z,100.00
2023-03-13T01:52:05.650Z,100.00
2023-03-13T01:54:41.999Z,100.00
2023-03-13T01:57:19.652Z,100.00
2023-03-13T01:59:53.982Z,100.00
2023-03-13T02:02:25.202Z,100.00
2023-03-13T02:05:00.325Z,100.00
2023-03-13T02:07:33.985Z,100.00
2023-03-13T02:10:03.981Z,100.00
2023-03-13T02:12:35.304Z,100.00
2023-03-13T02:15:08.436Z,100.00
2023-03-13T02:17:39.154Z,100.00
2023-03-13T02:20:13.136Z,100.00
2023-03-13T02:22:49.786Z,100.00
2023-03-13T02:25:26.459Z,100.00
2023-03-13T02:28:04.155Z,100.00
2023-03-13T02:30:34.155Z,100.00
2023-03-13T02:33:05.430Z,100.00
2023-03-13T02:35:35.727Z,100.00
2023-03-13T02:38:08.621Z,100.00
2023-03-13T02:40:41.207Z,100.00
2023-03-13T02:43:18.285Z,100.00
2023-03-13T02:46:07.133Z,100.00
2023-03-13T02:48:38.612Z,100.00
2023-03-13T02:51:12.012Z,100.00
2023-03-13T02:53:41.278Z,100.00
2023-03-13T02:56:10.615Z,100.00
2023-03-13T02:58:50.453Z,100.00
2023-03-13T03:01:20.071Z,100.00
2023-03-13T03:03:49.409Z,100.00
2023-03-13T03:06:18.643Z,100.00
2023-03-13T03:08:47.951Z,100.00
2023-03-13T03:11:17.278Z,100.00
2023-03-13T03:13:49.157Z,100.00
2023-03-13T03:16:19.216Z,100.00
2023-03-13T03:18:49.060Z,100.00
2023-03-13T03:21:18.355Z,100.00
2023-03-13T03:23:47.578Z,100.00
2023-03-13T03:26:16.803Z,100.00
2023-03-13T03:28:48.808Z,100.00
2023-03-13T03:31:18.868Z,100.00
2023-03-13T03:33:48.293Z,100.00
2023-03-13T03:36:20.051Z,100.00
2023-03-13T03:38:49.515Z,100.00
2023-03-13T03:41:19.817Z,100.00
2023-03-13T03:43:51.853Z,100.00
2023-03-13T03:46:21.445Z,100.00
2023-03-13T03:48:50.804Z,100.00
2023-03-13T03:51:20.088Z,100.00
2023-03-13T03:53:49.324Z,100.00
2023-03-13T03:56:18.658Z,100.00
2023-03-13T03:58:47.942Z,100.00
2023-03-13T04:01:19.833Z,100.00
2023-03-13T04:03:49.355Z,100.00
2023-03-13T04:06:18.638Z,100.00
2023-03-13T04:08:49.229Z,100.00
2023-03-13T04:11:18.570Z,100.00
2023-03-13T04:13:47.801Z,100.00
2023-03-13T04:16:19.699Z,100.00
2023-03-13T04:18:48.917Z,100.00
2023-03-13T04:21:18.166Z,100.00
2023-03-13T04:23:47.408Z,100.00
2023-03-13T04:26:16.735Z,100.00
2023-03-13T04:28:45.973Z,100.00
2023-03-13T04:31:15.271Z,100.00
2023-03-13T04:33:47.153Z,100.00
2023-03-13T04:36:16.443Z,100.00
2023-03-13T04:38:45.698Z,100.00
2023-03-13T04:41:14.894Z,100.00
2023-03-13T04:43:44.151Z,100.00
2023-03-13T04:46:13.404Z,100.00
2023-03-13T04:48:42.708Z,100.00
2023-03-13T04:51:14.591Z,100.00
2023-03-13T04:53:43.867Z,100.00
2023-03-13T04:56:14.752Z,100.00
2023-03-13T04:58:46.590Z,100.00
2023-03-13T05:01:16.248Z,100.00
2023-03-13T05:03:45.507Z,100.00
2023-03-13T05:06:17.427Z,100.00
2023-03-13T05:08:46.917Z,100.00
2023-03-13T05:11:16.159Z,100.00
2023-03-13T05:13:45.405Z,100.00
2023-03-13T05:16:14.696Z,100.00
2023-03-13T05:18:44.090Z,100.00
2023-03-13T05:21:16.842Z,100.00
2023-03-13T05:23:46.079Z,100.00
2023-03-13T05:26:15.455Z,100.00
2023-03-13T05:28:44.762Z,100.00
2023-03-13T05:31:14.068Z,100.00
2023-03-13T05:33:43.378Z,100.00
2023-03-13T05:36:12.622Z,100.00
2023-03-13T05:38:44.912Z,100.00
2023-03-13T05:41:14.301Z,100.00
2023-03-13T05:43:43.603Z,100.00
2023-03-13T05:46:13.123Z,100.00
2023-03-13T05:48:42.425Z,100.00
2023-03-13T05:51:11.771Z,100.00
2023-03-13T05:53:45.958Z,100.00
2023-03-13T05:56:15.296Z,100.00
2023-03-13T05:58:44.628Z,100.00
2023-03-13T06:01:15.814Z,100.00
2023-03-13T06:03:45.187Z,100.00
2023-03-13T06:06:14.499Z,100.00
2023-03-13T06:08:46.324Z,100.00
2023-03-13T06:11:15.663Z,100.00
2023-03-13T06:13:44.884Z,100.00
2023-03-13T06:16:14.202Z,100.00
2023-03-13T06:18:43.544Z,100.00
2023-03-13T06:21:12.880Z,100.00
2023-03-13T06:23:42.274Z,100.00
2023-03-13T06:26:14.277Z,100.00
2023-03-13T06:28:43.531Z,100.00
2023-03-13T06:31:13.528Z,100.00
2023-03-13T06:33:42.886Z,100.00
2023-03-13T06:36:12.730Z,100.00
2023-03-13T06:38:42.039Z,100.00
2023-03-13T06:41:14.011Z,100.00
2023-03-13T06:43:43.327Z,100.00
2023-03-13T06:46:20.630Z,100.00
2023-03-13T06:48:49.940Z,100.00
2023-03-13T06:51:20.946Z,100.00
2023-03-13T06:53:52.311Z,100.00
2023-03-13T06:56:24.386Z,100.00
2023-03-13T06:58:53.752Z,100.00
2023-03-13T07:01:23.124Z,100.00
2023-03-13T07:03:52.588Z,100.00
2023-03-13T07:06:21.861Z,100.00
2023-03-13T07:08:51.186Z,100.00
2023-03-13T07:11:20.511Z,100.00
2023-03-13T07:13:52.548Z,100.00
2023-03-13T07:16:22.367Z,100.00
2023-03-13T07:18:51.675Z,100.00
2023-03-13T07:21:20.892Z,100.00
2023-03-13T07:23:50.185Z,100.00
2023-03-13T07:26:20.610Z,100.00
2023-03-13T07:28:52.461Z,100.00
2023-03-13T07:31:23.987Z,100.00
2023-03-13T07:33:56.671Z,100.00
2023-03-13T07:36:26.422Z,100.00
2023-03-13T07:38:55.823Z,100.00
2023-03-13T07:41:25.422Z,100.00
2023-03-13T07:43:57.295Z,100.00
2023-03-13T07:46:26.623Z,100.00
2023-03-13T07:48:56.499Z,100.00
2023-03-13T07:51:42.513Z,100.00
2023-03-13T07:54:13.024Z,100.00
2023-03-13T07:56:42.647Z,100.00
2023-03-13T07:59:14.560Z,100.00
2023-03-13T08:01:43.818Z,100.00
2023-03-13T08:04:15.915Z,100.00
2023-03-13T08:06:45.192Z,100.00
2023-03-13T08:09:14.518Z,100.00
2023-03-13T08:11:44.616Z,100.00
2023-03-13T08:14:16.635Z,100.00
2023-03-13T08:16:45.945Z,100.00
2023-03-13T08:19:15.190Z,100.00
2023-03-13T08:21:44.561Z,100.00
2023-03-13T08:24:14.818Z,100.00
2023-03-13T08:26:44.893Z,100.00
2023-03-13T08:29:17.922Z,100.00
2023-03-13T08:31:50.175Z,100.00
2023-03-13T08:34:21.169Z,100.00
2023-03-13T08:36:50.526Z,100.00
2023-03-13T08:39:21.745Z,100.00
2023-03-13T08:41:51.412Z,100.00
2023-03-13T08:44:23.292Z,100.00
2023-03-13T08:46:52.603Z,100.00
2023-03-13T08:49:21.949Z,100.00
2023-03-13T08:51:51.349Z,100.00
2023-03-13T08:54:20.628Z,100.00
2023-03-13T08:56:49.918Z,100.00
2023-03-13T08:59:23.855Z,100.00
2023-03-13T09:01:53.273Z,100.00
2023-03-13T09:04:22.990Z,100.00
2023-03-13T09:06:52.421Z,100.00
2023-03-13T09:09:24.220Z,100.00
2023-03-13T09:11:53.960Z,100.00
2023-03-13T09:14:25.875Z,100.00
2023-03-13T09:16:56.415Z,100.00
2023-03-13T09:19:25.705Z,100.00
2023-03-13T09:21:55.121Z,100.00
2023-03-13T09:24:24.508Z,100.00
2023-03-13T09:27:00.982Z,100.00
2023-03-13T09:29:33.671Z,100.00
2023-03-13T09:32:04.704Z,100.00
2023-03-13T09:34:34.404Z,100.00
2023-03-13T09:37:03.901Z,100.00
2023-03-13T09:39:33.276Z,100.00
2023-03-13T09:42:12.996Z,100.00
2023-03-13T09:44:49.244Z,100.00
2023-03-13T09:47:26.361Z,100.00
2023-03-13T09:50:00.169Z,100.00
2023-03-13T09:52:36.353Z,100.00
2023-03-13T09:55:08.027Z,100.00
2023-03-13T09:57:40.778Z,100.00
2023-03-13T10:00:17.276Z,100.00
2023-03-13T10:02:49.267Z,100.00
2023-03-13T10:05:23.320Z,100.00
2023-03-13T10:07:53.932Z,100.00
2023-03-13T10:10:31.724Z,100.00
2023-03-13T10:13:12.783Z,100.00
2023-03-13T10:15:50.466Z,100.00
2023-03-13T10:18:22.414Z,100.00
2023-03-13T10:20:53.339Z,100.00
2023-03-13T10:23:29.476Z,100.00
2023-03-13T10:25:58.755Z,100.00
2023-03-13T10:28:28.351Z,100.00
2023-03-13T10:31:08.015Z,100.00
2023-03-13T10:33:39.689Z,100.00
2023-03-13T10:36:11.922Z,100.00
2023-03-13T10:38:50.979Z,100.00
2023-03-13T10:41:31.930Z,100.00
2023-03-13T10:44:04.105Z,100.00
2023-03-13T10:46:38.510Z,100.00
2023-03-13T10:49:17.761Z,100.00
2023-03-13T10:51:51.766Z,100.00
2023-03-13T10:54:26.046Z,100.00
2023-03-13T10:57:10.717Z,100.00
2023-03-13T10:59:45.681Z,100.00
2023-03-13T11:02:29.710Z,100.00
2023-03-13T11:04:59.920Z,100.00
2023-03-13T11:07:32.534Z,100.00
2023-03-13T11:10:03.876Z,100.00
2023-03-13T11:12:37.469Z,100.00
2023-03-13T11:15:18.068Z,100.00
2023-03-13T11:17:57.416Z,100.00
2023-03-13T11:20:30.197Z,100.00
2023-03-13T11:23:13.993Z,100.00
2023-03-13T11:25:50.776Z,100.00
2023-03-13T11:28:31.286Z,100.00
2023-03-13T11:31:10.286Z,100.00
2023-03-13T11:33:53.480Z,100.00
2023-03-13T11:36:28.841Z,100.00
2023-03-13T11:39:05.641Z,100.00
2023-03-13T11:41:56.517Z,100.00
2023-03-13T11:44:33.905Z,100.00
2023-03-13T11:47:16.098Z,100.00
2023-03-13T11:50:07.602Z,100.00
2023-03-13T11:52:45.689Z,100.00
2023-03-13T11:55:32.297Z,100.00
2023-03-13T11:58:16.045Z,100.00
2023-03-13T12:00:50.824Z,100.00
2023-03-13T12:03:30.892Z,100.00
2023-03-13T12:06:06.699Z,100.00
2023-03-13T12:08:45.012Z,100.00
2023-03-13T12:11:20.623Z,100.00
2023-03-13T12:13:54.851Z,100.00
2023-03-13T12:16:28.829Z,100.00
2023-03-13T12:18:58.699Z,100.00
2023-03-13T12:21:39.239Z,100.00
2023-03-13T12:24:16.052Z,100.00
2023-03-13T12:26:47.946Z,100.00
2023-03-13T12:29:23.675Z,100.00
2023-03-13T12:31:57.667Z,100.00
2023-03-13T12:34:32.973Z,100.00
2023-03-13T12:37:13.686Z,100.00
2023-03-13T12:39:50.150Z,100.00
2023-03-13T12:42:26.308Z,100.00
2023-03-13T12:44:56.856Z,100.00
2023-03-13T12:47:33.267Z,100.00
2023-03-13T12:50:26.704Z,100.00
2023-03-13T12:53:21.509Z,100.00
2023-03-13T12:56:28.788Z,100.00
2023-03-13T12:59:02.947Z,100.00
2023-03-13T13:01:36.319Z,100.00
2023-03-13T13:04:09.708Z,100.00
2023-03-13T13:06:59.405Z,100.00
2023-03-13T13:09:32.814Z,100.00
2023-03-13T13:12:04.804Z,100.00
2023-03-13T13:14:59.728Z,100.00
2023-03-13T13:17:45.613Z,100.00
2023-03-13T13:20:37.736Z,100.00
2023-03-13T13:23:39.261Z,100.00
2023-03-13T13:26:51.189Z,100.00
2023-03-13T13:29:59.533Z,100.00
2023-03-13T13:32:40.865Z,100.00
2023-03-13T13:35:31.226Z,100.00
2023-03-13T13:38:36.727Z,100.00
2023-03-13T13:41:25.914Z,100.00
2023-03-13T13:44:24.472Z,100.00
2023-03-13T13:46:55.202Z,100.00
2023-03-13T13:49:33.402Z,100.00
2023-03-13T13:52:41.884Z,100.00
2023-03-13T13:55:43.696Z,100.00
2023-03-13T13:58:22.246Z,100.00
2023-03-13T14:00:57.129Z,100.00
2023-03-13T14:03:28.601Z,100.00
2023-03-13T14:06:06.060Z,100.00
2023-03-13T14:08:39.414Z,100.00
2023-03-13T14:11:24.500Z,100.00
2023-03-13T14:14:11.701Z,100.00
2023-03-13T14:16:42.418Z,100.00
2023-03-13T14:19:24.373Z,100.00
2023-03-13T14:22:00.863Z,100.00
2023-03-13T14:24:30.211Z,100.00
2023-03-13T14:26:59.930Z,100.00
2023-03-13T14:29:29.675Z,100.00
2023-03-13T14:32:00.765Z,100.00
2023-03-13T14:34:32.730Z,100.00
2023-03-13T14:37:17.560Z,100.00
2023-03-13T14:39:49.389Z,100.00
2023-03-13T14:42:20.750Z,100.00
2023-03-13T14:44:53.996Z,100.00
2023-03-13T14:47:27.107Z,100.00
2023-03-13T14:50:01.400Z,100.00
2023-03-13T14:52:34.475Z,100.00
2023-03-13T14:55:06.450Z,100.00
2023-03-13T14:57:36.998Z,100.00
2023-03-13T15:00:32.344Z,100.00
2023-03-13T15:03:25.410Z,100.00
2023-03-13T15:06:07.908Z,100.00
2023-03-13T15:08:42.286Z,100.00
2023-03-13T15:11:22.207Z,100.00
2023-03-13T15:13:51.520Z,100.00
2023-03-13T15:16:22.959Z,100.00
2023-03-13T15:18:53.349Z,100.00
2023-03-13T15:21:26.059Z,100.00
2023-03-13T15:24:01.517Z,100.00
2023-03-13T15:26:31.981Z,100.00
2023-03-13T15:29:01.209Z,100.00
2023-03-13T15:31:32.059Z,100.00
2023-03-13T15:34:03.133Z,100.00
2023-03-13T15:36:34.383Z,100.00
2023-03-13T15:39:06.627Z,100.00
2023-03-13T15:41:35.881Z,100.00
2023-03-13T15:44:05.146Z,100.00
2023-03-13T15:46:35.388Z,100.00
2023-03-13T15:49:05.160Z,100.00
2023-03-13T15:51:34.416Z,100.00
2023-03-13T15:54:09.010Z,100.00
2023-03-13T15:56:40.569Z,100.00
2023-03-13T15:59:14.603Z,100.00
2023-03-13T16:01:45.130Z,100.00
2023-03-13T16:04:14.771Z,100.00
2023-03-13T16:06:44.076Z,100.00
2023-03-13T16:09:17.465Z,100.00
2023-03-13T16:11:47.213Z,100.00
2023-03-13T16:14:16.437Z,100.00
2023-03-13T16:16:45.713Z,100.00
2023-03-13T16:19:14.955Z,100.00
2023-03-13T16:21:48.377Z,100.00
2023-03-13T16:24:20.836Z,100.00
2023-03-13T16:26:50.441Z,99.75
2023-03-13T16:29:20.223Z,99.97
2023-03-13T16:31:49.527Z,99.97
2023-03-13T16:34:18.750Z,99.56
2023-03-13T16:36:48.202Z,99.43
2023-03-13T16:39:20.849Z,98.66
2023-03-13T16:41:50.356Z,99.57
2023-03-13T16:44:19.718Z,97.36
2023-03-13T16:47:04.460Z,97.78
2023-03-13T16:49:34.809Z,98.01
2023-03-13T16:52:06.157Z,97.89
2023-03-13T16:54:38.043Z,97.07
2023-03-13T16:57:12.583Z,97.33
2023-03-13T16:59:41.875Z,98.41
2023-03-13T17:02:16.807Z,97.02
2023-03-13T17:04:47.192Z,94.72
2023-03-13T17:07:23.247Z,95.91
2023-03-13T17:09:55.483Z,95.59
2023-03-13T17:12:24.850Z,94.81
2023-03-13T17:14:54.195Z,93.94
2023-03-13T17:17:25.603Z,92.74
2023-03-13T17:19:55.979Z,93.41
2023-03-13T17:22:25.863Z,92.29
2023-03-13T17:24:57.651Z,93.13
2023-03-13T17:27:27.079Z,91.99
2023-03-13T17:29:56.310Z,92.14
2023-03-13T17:32:25.688Z,91.85
2023-03-13T17:34:55.142Z,91.41
2023-03-13T17:37:24.589Z,91.50
2023-03-13T17:39:54.066Z,91.50
2023-03-13T17:42:27.166Z,92.28
2023-03-13T17:44:56.502Z,92.30
2023-03-13T17:47:27.058Z,92.57
2023-03-13T17:49:56.432Z,92.41
2023-03-13T17:52:25.766Z,92.87
2023-03-13T17:54:55.689Z,92.10
2023-03-13T17:57:28.888Z,92.99
2023-03-13T17:59:58.114Z,93.57
2023-03-13T18:02:27.984Z,93.88
2023-03-13T18:04:57.519Z,94.29
2023-03-13T18:07:29.539Z,95.30
2023-03-13T18:09:58.914Z,95.52
2023-03-13T18:12:32.309Z,95.25
2023-03-13T18:15:01.540Z,95.29
2023-03-13T18:17:31.561Z,95.99
2023-03-13T18:20:00.847Z,96.17
2023-03-13T18:22:30.902Z,96.47
2023-03-13T18:25:00.136Z,96.78
2023-03-13T18:27:32.332Z,96.36
2023-03-13T18:30:06.074Z,96.96
2023-03-13T18:32:35.295Z,96.80
2023-03-13T18:35:04.572Z,97.17
2023-03-13T18:37:33.849Z,97.43
2023-03-13T18:40:05.368Z,98.23
2023-03-13T18:42:37.195Z,98.23
2023-03-13T18:45:07.827Z,97.56
2023-03-13T18:47:37.086Z,98.77
2023-03-13T18:50:24.617Z,98.13
2023-03-13T18:52:55.377Z,98.38
2023-03-13T18:55:25.086Z,98.23
2023-03-13T18:57:57.564Z,98.53
2023-03-13T19:00:28.727Z,97.98
2023-03-13T19:02:58.309Z,98.37
2023-03-13T19:05:27.631Z,98.71
2023-03-13T19:07:57.222Z,98.60
2023-03-13T19:10:28.493Z,98.93
2023-03-13T19:13:00.565Z,98.71
2023-03-13T19:15:32.703Z,99.79
2023-03-13T19:18:04.027Z,99.33
2023-03-13T19:20:33.522Z,98.88
2023-03-13T19:23:03.279Z,99.62
2023-03-13T19:25:34.494Z,99.38
2023-03-13T19:28:08.416Z,99.45
2023-03-13T19:30:37.704Z,99.58
2023-03-13T19:33:06.985Z,99.88
2023-03-13T19:35:36.265Z,100.00
2023-03-13T19:38:05.500Z,100.00
2023-03-13T19:40:34.764Z,100.00
2023-03-13T19:43:06.707Z,100.00
2023-03-13T19:45:35.984Z,100.00
2023-03-13T19:48:05.265Z,100.00
2023-03-13T19:50:34.752Z,100.00
2023-03-13T19:53:04.231Z,100.00
2023-03-13T19:55:33.451Z,100.00
2023-03-13T19:58:04.018Z,100.00
2023-03-13T20:00:37.257Z,100.00
2023-03-13T20:03:07.177Z,100.00
2023-03-13T20:05:36.806Z,100.00
2023-03-13T20:08:06.121Z,100.00
2023-03-13T20:10:35.438Z,100.00
2023-03-13T20:13:04.658Z,100.00
2023-03-13T20:15:36.679Z,100.00
2023-03-13T20:18:06.293Z,100.00
2023-03-13T20:23:10.624Z,100.00
2023-03-13T20:25:39.877Z,100.00
2023-03-13T20:28:09.158Z,100.00
2023-03-13T20:30:45.018Z,100.00
2023-03-13T20:33:14.755Z,100.00
2023-03-13T20:35:44.143Z,100.00
2023-03-13T20:38:13.452Z,100.00
2023-03-13T20:40:42.688Z,100.00
2023-03-13T20:43:11.920Z,100.00
2023-03-13T20:45:43.728Z,100.00
2023-03-13T20:48:13.200Z,100.00
2023-03-13T20:50:42.419Z,100.00
2023-03-13T20:53:14.606Z,100.00
2023-03-13T20:55:44.253Z,100.00
2023-03-13T20:58:13.496Z,100.00
2023-03-13T21:00:46.669Z,100.00
2023-03-13T21:03:17.364Z,100.00
2023-03-13T21:05:47.309Z,100.00
2023-03-13T21:08:16.527Z,100.00
2023-03-13T21:10:46.315Z,100.00
2023-03-13T21:13:15.576Z,100.00
2023-03-13T21:15:47.424Z,100.00
2023-03-13T21:18:16.701Z,100.00
2023-03-13T21:20:45.921Z,100.00
2023-03-13T21:23:15.157Z,100.00
2023-03-13T21:25:44.364Z,100.00
2023-03-13T21:28:13.594Z,100.00
2023-03-13T21:30:42.892Z,100.00
2023-03-13T21:33:14.700Z,100.00
2023-03-13T21:35:44.916Z,100.00
2023-03-13T21:38:14.143Z,100.00
2023-03-13T21:40:43.771Z,100.00
2023-03-13T21:43:13.022Z,100.00
2023-03-13T21:45:42.214Z,100.00
2023-03-13T21:48:14.111Z,100.00
2023-03-13T21:50:43.328Z,100.00
2023-03-13T21:53:12.531Z,100.00
2023-03-13T21:55:42.281Z,100.00
2023-03-13T21:58:11.484Z,100.00
2023-03-13T22:00:40.765Z,100.00
2023-03-13T22:03:10.395Z,100.00
2023-03-13T22:05:46.085Z,100.00
2023-03-13T22:08:15.685Z,100.00
2023-03-13T22:10:50.362Z,100.00
2023-03-13T22:13:19.907Z,100.00
2023-03-13T22:15:50.622Z,100.00
2023-03-13T22:18:20.292Z,100.00
2023-03-13T22:20:52.343Z,100.00
2023-03-13T22:23:21.596Z,100.00
2023-03-13T22:25:51.006Z,100.00
2023-03-13T22:28:20.408Z,100.00
2023-03-13T22:30:49.874Z,100.00
2023-03-13T22:33:19.914Z,100.00
2023-03-13T22:35:53.768Z,100.00
2023-03-13T22:38:23.718Z,100.00
2023-03-13T22:41:00.672Z,100.00
2023-03-13T22:43:35.349Z,100.00
2023-03-13T22:46:07.416Z,100.00
2023-03-13T22:48:37.211Z,100.00
2023-03-13T22:51:11.870Z,100.00
2023-03-13T22:53:42.890Z,100.00
2023-03-13T22:56:14.485Z,100.00
2023-03-13T22:58:44.357Z,100.00
2023-03-13T23:01:15.693Z,100.00
2023-03-13T23:03:45.727Z,100.00
2023-03-13T23:06:20.287Z,100.00
2023-03-13T23:08:50.545Z,100.00
2023-03-13T23:11:20.681Z,100.00
2023-03-13T23:13:50.071Z,100.00
2023-03-13T23:16:19.404Z,100.00
2023-03-13T23:18:48.749Z,100.00
2023-03-13T23:21:20.732Z,100.00
2023-03-13T23:23:55.907Z,100.00
2023-03-13T23:26:25.551Z,100.00
2023-03-13T23:28:54.889Z,100.00
2023-03-13T23:31:25.730Z,100.00
2023-03-13T23:33:55.719Z,100.00
2023-03-13T23:36:30.396Z,100.00
2023-03-13T23:39:03.647Z,100.00
2023-03-13T23:41:33.191Z,100.00
2023-03-13T23:44:03.241Z,100.00
2023-03-13T23:46:32.536Z,100.00
2023-03-13T23:49:01.831Z,100.00
2023-03-13T23:51:33.805Z,100.00
2023-03-13T23:54:03.534Z,100.00
2023-03-13T23:56:33.794Z,100.00
2023-03-13T23:59:03.104Z,100.00
